Terminal Aerodrome Forecast
Issued by NWS

Home | Current Version | Previous Version | Text Only | Print | Product List | Glossary On
Versions: 1 2 3 4 5 6 7 8 9 10 11 12 13 14 15 16 17 18
000
FTUS46 KLOX 270500
TAFLGB
TAF
KLGB 270520Z 2706/2806 VRB03KT P6SM SKC
     FM271600 18006KT P6SM SKC
     FM272300 29010KT P6SM SKC
     FM280500 VRB03KT P6SM SKC=

USA.gov is the U.S. government's official web portal to all federal, state and local government web resources and services.